createdAt,value
2023-09-22T00:03:44.582Z,100.00
2023-09-22T00:07:47.090Z,100.00
2023-09-22T00:11:49.475Z,100.00
2023-09-22T00:15:51.597Z,100.00
2023-09-22T00:19:53.727Z,100.00
2023-09-22T00:23:55.786Z,100.00
2023-09-22T00:27:57.979Z,100.00
2023-09-22T00:32:00.210Z,100.00
2023-09-22T00:36:03.638Z,100.00
2023-09-22T00:40:09.883Z,100.00
2023-09-22T00:44:12.877Z,100.00
2023-09-22T00:48:22.722Z,100.00
2023-09-22T00:52:26.955Z,99.30
2023-09-22T00:56:29.937Z,98.44
2023-09-22T01:00:32.967Z,97.97
2023-09-22T01:04:35.457Z,97.42
2023-09-22T01:08:38.210Z,97.80
2023-09-22T01:12:40.332Z,97.60
2023-09-22T01:16:43.397Z,96.50
2023-09-22T01:20:46.682Z,96.89
2023-09-22T01:24:48.817Z,100.00
2023-09-22T01:28:51.939Z,98.88
2023-09-22T01:32:54.020Z,96.96
2023-09-22T01:36:56.160Z,96.26
2023-09-22T01:40:59.312Z,95.55
2023-09-22T01:45:02.699Z,94.97
2023-09-22T01:49:04.801Z,94.94
2023-09-22T01:53:11.086Z,94.48
2023-09-22T01:57:14.408Z,93.03
2023-09-22T02:01:16.508Z,93.81
2023-09-22T02:05:19.946Z,93.03
2023-09-22T02:09:22.374Z,93.51
2023-09-22T02:13:24.544Z,93.21
2023-09-22T02:17:27.096Z,91.84
2023-09-22T02:21:29.232Z,89.98
2023-09-22T02:25:31.336Z,89.42
2023-09-22T02:29:33.587Z,89.37
2023-09-22T02:33:35.669Z,89.22
2023-09-22T02:37:38.009Z,90.45
2023-09-22T02:41:40.057Z,92.16
2023-09-22T02:45:43.198Z,93.03
2023-09-22T02:49:45.479Z,94.00
2023-09-22T02:53:48.510Z,93.68
2023-09-22T02:57:51.619Z,93.06
2023-09-22T03:01:54.847Z,91.78
2023-09-22T03:06:00.421Z,91.51
2023-09-22T03:10:07.470Z,91.97
2023-09-22T03:14:09.730Z,91.86
2023-09-22T03:18:12.240Z,92.46
2023-09-22T03:22:14.550Z,93.42
2023-09-22T03:26:17.085Z,94.38
2023-09-22T03:30:19.449Z,95.08
2023-09-22T03:34:22.424Z,95.57
2023-09-22T03:38:26.968Z,96.45
2023-09-22T03:42:29.143Z,95.78
2023-09-22T03:46:32.611Z,95.52
2023-09-22T03:50:34.739Z,95.64
2023-09-22T03:54:37.247Z,93.88
2023-09-22T03:58:41.028Z,92.12
2023-09-22T04:02:43.197Z,93.29
2023-09-22T04:06:46.189Z,95.71
2023-09-22T04:10:48.264Z,93.66
2023-09-22T04:14:50.309Z,94.61
2023-09-22T04:18:55.371Z,93.37
2023-09-22T04:22:59.406Z,92.64
2023-09-22T04:27:06.825Z,93.87
2023-09-22T04:31:12.560Z,94.29
2023-09-22T04:35:14.897Z,97.15
2023-09-22T04:39:17.581Z,98.00
2023-09-22T04:43:19.756Z,96.73
2023-09-22T04:47:22.117Z,97.92
2023-09-22T04:51:24.203Z,96.91
2023-09-22T04:55:26.522Z,94.57
2023-09-22T04:59:29.263Z,94.49
2023-09-22T05:03:31.983Z,95.16
2023-09-22T05:07:34.763Z,95.32
2023-09-22T05:11:37.760Z,95.60
2023-09-22T05:15:42.937Z,96.36
2023-09-22T05:19:45.810Z,96.75
2023-09-22T05:23:52.470Z,97.31
2023-09-22T05:31:56.655Z,100.00
2023-09-22T05:35:59.142Z,100.00
2023-09-22T05:40:01.234Z,98.45
2023-09-22T05:44:03.460Z,99.18
2023-09-22T05:48:06.175Z,100.00
2023-09-22T05:52:08.799Z,100.00
2023-09-22T05:56:12.243Z,100.00
2023-09-22T06:00:18.034Z,100.00
2023-09-22T06:04:20.347Z,100.00
2023-09-22T06:08:22.447Z,100.00
2023-09-22T06:12:24.491Z,100.00
2023-09-22T06:16:27.095Z,100.00
2023-09-22T06:20:29.267Z,100.00
2023-09-22T06:24:31.355Z,100.00
2023-09-22T06:28:36.496Z,100.00
2023-09-22T06:32:41.922Z,100.00
2023-09-22T06:36:44.049Z,100.00
2023-09-22T06:40:46.373Z,100.00
2023-09-22T06:44:48.428Z,100.00
2023-09-22T06:48:50.520Z,100.00
2023-09-22T06:52:52.602Z,100.00
2023-09-22T06:56:55.434Z,100.00
2023-09-22T07:00:57.817Z,100.00
2023-09-22T07:05:00.045Z,100.00
2023-09-22T07:09:02.078Z,100.00
2023-09-22T07:13:04.908Z,100.00
2023-09-22T07:17:07.034Z,100.00
2023-09-22T07:21:12.178Z,100.00
2023-09-22T07:25:15.343Z,100.00
2023-09-22T07:29:18.985Z,100.00
2023-09-22T07:33:22.139Z,100.00
2023-09-22T07:37:24.654Z,100.00
2023-09-22T07:41:26.777Z,100.00
2023-09-22T07:45:30.105Z,100.00
2023-09-22T07:49:32.259Z,97.80
2023-09-22T07:53:34.768Z,96.46
2023-09-22T07:57:36.944Z,96.46
2023-09-22T08:01:39.031Z,96.77
2023-09-22T08:05:41.307Z,95.76
2023-09-22T08:09:43.570Z,95.37
2023-09-22T08:13:49.035Z,94.29
2023-09-22T08:17:51.417Z,92.80
2023-09-22T08:21:53.560Z,92.33
2023-09-22T08:25:57.457Z,90.97
2023-09-22T08:29:59.642Z,88.59
2023-09-22T08:34:03.428Z,87.98
2023-09-22T08:38:06.168Z,87.64
2023-09-22T08:42:08.675Z,85.36
2023-09-22T08:46:12.916Z,82.82
2023-09-22T08:50:19.377Z,80.49
2023-09-22T08:54:21.549Z,80.58
2023-09-22T08:58:23.583Z,78.26
2023-09-22T09:02:26.898Z,73.74
2023-09-22T09:06:46.222Z,72.92
2023-09-22T09:10:49.637Z,72.92
2023-09-22T09:14:59.200Z,73.47
2023-09-22T09:19:17.110Z,72.97
2023-09-22T09:23:20.928Z,72.73
2023-09-22T09:27:23.092Z,72.79
2023-09-22T09:31:43.669Z,71.67
2023-09-22T09:35:51.121Z,72.52
2023-09-22T09:39:57.119Z,75.57
2023-09-22T09:44:04.754Z,72.94
2023-09-22T09:48:11.204Z,70.22
2023-09-22T09:52:17.120Z,69.05
2023-09-22T09:56:19.801Z,69.84
2023-09-22T10:00:22.280Z,68.50
2023-09-22T10:04:25.354Z,68.01
2023-09-22T10:08:28.216Z,67.78
2023-09-22T10:12:31.620Z,66.80
2023-09-22T10:16:34.008Z,66.87
2023-09-22T10:20:46.996Z,65.92
2023-09-22T10:25:34.768Z,65.39
2023-09-22T10:29:46.683Z,63.17
2023-09-22T10:33:48.946Z,60.20
2023-09-22T10:38:03.386Z,60.10
2023-09-22T10:42:07.358Z,59.64
2023-09-22T10:46:18.287Z,57.70
2023-09-22T10:50:22.441Z,57.23
2023-09-22T10:54:24.499Z,57.31
2023-09-22T10:58:27.689Z,57.16
2023-09-22T11:02:30.128Z,57.37
2023-09-22T11:06:46.226Z,56.39
2023-09-22T11:10:50.415Z,56.54
2023-09-22T11:14:53.057Z,57.78
2023-09-22T11:19:06.222Z,57.98
2023-09-22T11:23:08.371Z,57.90
2023-09-22T11:27:11.602Z,58.61
2023-09-22T11:31:16.104Z,57.92
2023-09-22T11:35:41.621Z,57.12
2023-09-22T11:39:44.176Z,56.64
2023-09-22T11:43:50.491Z,56.94
2023-09-22T11:48:05.181Z,57.58
2023-09-22T11:52:07.338Z,57.37
2023-09-22T11:56:09.418Z,56.93
2023-09-22T12:00:15.084Z,55.22
2023-09-22T12:04:19.921Z,54.40
2023-09-22T12:08:22.301Z,54.14
2023-09-22T12:12:24.357Z,52.74
2023-09-22T12:16:26.483Z,53.65
2023-09-22T12:20:28.662Z,52.08
2023-09-22T12:24:30.777Z,51.43
2023-09-22T12:28:32.803Z,51.04
2023-09-22T12:32:34.990Z,50.71
2023-09-22T12:36:37.170Z,50.72
2023-09-22T12:40:39.455Z,50.08
2023-09-22T12:44:41.733Z,50.29
2023-09-22T12:48:43.764Z,50.23
2023-09-22T12:52:45.972Z,50.08
2023-09-22T12:56:48.050Z,49.53
2023-09-22T13:00:50.540Z,48.29
2023-09-22T13:04:52.598Z,49.03
2023-09-22T13:08:55.730Z,48.65
2023-09-22T13:12:57.806Z,48.04
2023-09-22T13:16:59.969Z,48.60
2023-09-22T13:21:02.905Z,47.71
2023-09-22T13:25:06.150Z,47.98
2023-09-22T13:29:08.219Z,46.58
2023-09-22T13:33:12.344Z,45.68
2023-09-22T13:37:14.519Z,46.25
2023-09-22T13:41:17.457Z,46.42
2023-09-22T13:45:19.858Z,46.81
2023-09-22T13:49:22.865Z,47.35
2023-09-22T13:53:24.970Z,47.75
2023-09-22T13:57:27.117Z,48.61
2023-09-22T14:01:29.331Z,48.50
2023-09-22T14:05:33.135Z,48.27
2023-09-22T14:09:36.113Z,48.47
2023-09-22T14:13:38.482Z,48.96
2023-09-22T14:17:40.850Z,48.41
2023-09-22T14:21:43.058Z,47.89
2023-09-22T14:25:46.944Z,47.82
2023-09-22T14:29:49.130Z,47.97
2023-09-22T14:33:52.725Z,48.22
2023-09-22T14:37:56.647Z,47.92
2023-09-22T14:42:00.102Z,48.47
2023-09-22T14:46:02.450Z,48.95
2023-09-22T14:50:06.440Z,48.35
2023-09-22T14:54:08.517Z,48.46
2023-09-22T14:58:10.627Z,48.25
2023-09-22T15:02:13.729Z,48.26
2023-09-22T15:06:17.387Z,48.30
2023-09-22T15:10:19.484Z,49.11
2023-09-22T15:14:21.568Z,49.52
2023-09-22T15:18:25.104Z,50.22
2023-09-22T15:22:29.726Z,51.16
2023-09-22T15:26:31.806Z,50.83
2023-09-22T15:30:34.120Z,51.20
2023-09-22T15:34:36.241Z,52.46
2023-09-22T15:38:39.370Z,53.36
2023-09-22T15:42:41.438Z,54.33
2023-09-22T15:46:43.632Z,55.21
2023-09-22T15:50:45.767Z,56.02
2023-09-22T15:54:47.954Z,56.69
2023-09-22T15:58:50.085Z,56.85
2023-09-22T16:02:52.898Z,57.24
2023-09-22T16:06:55.061Z,57.75
2023-09-22T16:10:57.167Z,58.65
2023-09-22T16:14:59.267Z,59.16
2023-09-22T16:19:01.326Z,59.65
2023-09-22T16:23:03.572Z,60.65
2023-09-22T16:27:05.837Z,60.98
2023-09-22T16:31:08.720Z,61.50
2023-09-22T16:35:10.823Z,61.91
2023-09-22T16:39:12.885Z,62.57
2023-09-22T16:43:15.032Z,64.02
2023-09-22T16:47:17.476Z,63.97
2023-09-22T16:51:19.604Z,64.52
2023-09-22T16:55:23.122Z,65.02
2023-09-22T16:59:26.557Z,65.36
2023-09-22T17:03:28.769Z,65.67
2023-09-22T17:07:31.086Z,66.45
2023-09-22T17:11:33.209Z,68.25
2023-09-22T17:15:39.721Z,69.98
2023-09-22T17:19:41.941Z,72.35
2023-09-22T17:23:44.075Z,73.53
2023-09-22T17:27:46.120Z,72.02
2023-09-22T17:31:48.288Z,76.42
2023-09-22T17:35:50.490Z,78.04
2023-09-22T17:39:52.853Z,76.92
2023-09-22T17:43:55.057Z,78.53
2023-09-22T17:47:57.276Z,80.11
2023-09-22T17:51:59.791Z,80.21
2023-09-22T17:56:05.919Z,80.95
2023-09-22T18:00:09.653Z,81.60
2023-09-22T18:04:14.751Z,81.66
2023-09-22T18:08:17.834Z,83.39
2023-09-22T18:12:19.924Z,83.47
2023-09-22T18:16:23.860Z,84.36
2023-09-22T18:20:26.025Z,85.24
2023-09-22T18:24:28.091Z,86.27
2023-09-22T18:28:30.227Z,87.05
2023-09-22T18:32:32.617Z,88.79
2023-09-22T18:36:35.335Z,88.50
2023-09-22T18:40:37.424Z,87.67
2023-09-22T18:44:39.477Z,86.75
2023-09-22T18:48:42.315Z,88.05
2023-09-22T18:52:45.086Z,89.76
2023-09-22T18:56:47.159Z,90.95
2023-09-22T19:00:49.788Z,92.42
2023-09-22T19:04:51.959Z,93.89
2023-09-22T19:08:55.185Z,95.54
2023-09-22T19:12:58.502Z,96.17
2023-09-22T19:17:01.005Z,97.08
2023-09-22T19:21:07.639Z,98.25
2023-09-22T19:25:09.945Z,100.00
2023-09-22T19:29:12.038Z,100.00
2023-09-22T19:33:14.277Z,100.00
2023-09-22T19:37:16.774Z,100.00
2023-09-22T19:41:20.514Z,100.00
2023-09-22T19:45:22.741Z,100.00
2023-09-22T19:49:24.867Z,100.00
2023-09-22T19:53:30.473Z,100.00
2023-09-22T19:57:32.774Z,100.00
2023-09-22T20:01:35.085Z,100.00
2023-09-22T20:05:37.837Z,100.00
2023-09-22T20:09:39.911Z,100.00
2023-09-22T20:13:42.072Z,100.00
2023-09-22T20:17:44.395Z,100.00
2023-09-22T20:21:47.097Z,100.00
2023-09-22T20:25:49.186Z,100.00
2023-09-22T20:29:53.722Z,100.00
2023-09-22T20:33:56.041Z,100.00
2023-09-22T20:37:58.195Z,100.00
2023-09-22T20:42:00.579Z,100.00
2023-09-22T20:46:02.746Z,100.00
2023-09-22T20:50:05.348Z,100.00
2023-09-22T20:54:12.757Z,100.00
2023-09-22T20:58:14.985Z,100.00
2023-09-22T21:02:18.813Z,100.00
2023-09-22T21:06:20.968Z,99.92
2023-09-22T21:10:24.498Z,98.98
2023-09-22T21:14:26.635Z,97.80
2023-09-22T21:18:31.413Z,97.06
2023-09-22T21:22:33.459Z,96.60
2023-09-22T21:26:39.656Z,96.78
2023-09-22T21:30:46.499Z,97.10
2023-09-22T21:34:48.637Z,97.11
2023-09-22T21:38:54.917Z,96.40
2023-09-22T21:42:57.685Z,95.60
2023-09-22T21:47:01.195Z,95.60
2023-09-22T21:51:06.341Z,95.53
2023-09-22T21:55:09.564Z,94.18
2023-09-22T21:59:11.740Z,92.76
2023-09-22T22:03:13.961Z,91.43
2023-09-22T22:07:16.149Z,88.74
2023-09-22T22:11:20.895Z,89.84
2023-09-22T22:15:23.123Z,95.37
2023-09-22T22:19:25.217Z,95.75
2023-09-22T22:23:27.346Z,93.39
2023-09-22T22:27:29.747Z,91.73
2023-09-22T22:31:31.909Z,91.40
2023-09-22T22:35:36.317Z,90.81
2023-09-22T22:39:38.372Z,89.55
2023-09-22T22:43:40.646Z,89.87
2023-09-22T22:47:42.931Z,90.38
2023-09-22T22:51:45.127Z,89.57
2023-09-22T22:55:47.253Z,89.44
2023-09-22T22:59:49.628Z,90.29
2023-09-22T23:03:51.800Z,90.51
2023-09-22T23:07:54.206Z,90.84
2023-09-22T23:11:56.261Z,91.55
2023-09-22T23:16:05.119Z,92.72
2023-09-22T23:20:10.270Z,93.13
2023-09-22T23:24:15.890Z,94.38
2023-09-22T23:28:17.936Z,94.63
2023-09-22T23:32:19.967Z,95.62
2023-09-22T23:36:22.336Z,96.26
2023-09-22T23:40:24.642Z,100.00
2023-09-22T23:44:26.854Z,100.00
2023-09-22T23:48:29.395Z,96.39
2023-09-22T23:52:31.561Z,94.86
2023-09-22T23:56:36.386Z,93.72
